Time;durP1;ratioP1;P1;durP2;ratioP2;P2;SDS_P1;SDS_P2;PMS_P1;PMS_P2;Temp;Humidity;BMP_temperature;BMP_pressure;BME280_temperature;BME280_humidity;BME280_pressure;Samples;Min_cycle;Max_cycle;Signal;HPM_P1;HPM_P2
2023/10/20 00:00:15;;;;;;;19.20;17.17;;;;;;;13.65;88.49;99088.78;5053685;28;20193;-65
2023/10/20 00:02:42;;;;;;;21.90;18.23;;;;;;;13.62;89.13;99083.06;5053652;28;20672;-65
2023/10/20 00:05:09;;;;;;;21.73;16.73;;;;;;;13.53;89.29;99079.91;5053824;28;20282;-65
2023/10/20 00:07:36;;;;;;;20.07;17.07;;;;;;;13.51;89.37;99081.97;5053660;28;20193;-65
2023/10/20 00:10:03;;;;;;;23.17;18.27;;;;;;;13.52;89.65;99099.59;5053596;28;20196;-65
2023/10/20 00:12:30;;;;;;;19.37;17.43;;;;;;;13.51;89.88;99092.63;5053940;28;20201;-65
2023/10/20 00:14:56;;;;;;;21.37;17.37;;;;;;;13.51;89.73;99087.31;5053698;28;20197;-65
2023/10/20 00:20:46;;;;;;;20.00;17.50;;;;;;;13.39;89.76;99091.75;5053537;28;20180;-65
2023/10/20 00:23:14;;;;;;;20.40;16.60;;;;;;;13.43;89.78;99084.94;5053650;28;20197;-64
2023/10/20 00:25:41;;;;;;;24.27;17.17;;;;;;;13.44;89.49;99089.22;5053437;28;20228;-64
2023/10/20 00:28:08;;;;;;;20.50;16.67;;;;;;;13.42;89.73;99083.31;5053253;28;20581;-64
2023/10/20 00:30:35;;;;;;;21.07;18.17;;;;;;;13.27;90.00;99085.53;5053148;28;20235;-64
2023/10/20 00:33:02;;;;;;;21.07;17.97;;;;;;;13.31;90.23;99081.38;5053495;28;20197;-64
2023/10/20 00:35:29;;;;;;;21.90;18.03;;;;;;;13.32;89.96;99077.69;5053645;28;20246;-64
2023/10/20 00:37:57;;;;;;;19.60;17.53;;;;;;;13.28;90.55;99087.16;5052979;28;20611;-65
2023/10/20 00:40:24;;;;;;;25.30;17.23;;;;;;;13.26;90.33;99085.75;5052974;28;20224;-64
2023/10/20 00:42:50;;;;;;;21.90;18.83;;;;;;;13.24;90.54;99088.66;5044749;28;20193;-65
2023/10/20 00:45:17;;;;;;;28.97;18.97;;;;;;;13.23;90.41;99084.34;5033227;28;20225;-66
2023/10/20 00:47:45;;;;;;;22.83;17.83;;;;;;;12.99;90.76;99071.91;5032646;28;20243;-65
2023/10/20 00:50:13;;;;;;;23.03;17.13;;;;;;;12.97;91.88;99074.00;5032897;28;20247;-65
2023/10/20 00:52:42;;;;;;;20.27;18.10;;;;;;;12.97;92.04;99076.66;5033110;28;20475;-64
2023/10/20 00:55:12;;;;;;;24.43;18.83;;;;;;;12.99;91.52;99071.09;5033107;28;20201;-64
2023/10/20 00:57:40;;;;;;;23.43;19.80;;;;;;;13.02;91.54;99068.00;5031714;28;20197;-65
2023/10/20 01:00:09;;;;;;;21.30;19.07;;;;;;;13.02;91.10;99065.34;5033033;28;20200;-65
2023/10/20 01:02:36;;;;;;;22.80;19.13;;;;;;;13.00;91.17;99052.22;5032987;28;20193;-65
2023/10/20 01:05:05;;;;;;;21.17;18.80;;;;;;;13.00;90.81;99057.56;5032497;28;20727;-65
2023/10/20 01:07:32;;;;;;;21.87;19.17;;;;;;;12.81;91.85;99045.22;5032497;28;20193;-65
2023/10/20 01:10:00;;;;;;;22.60;18.10;;;;;;;12.80;91.68;99040.94;5032844;28;20194;-65
2023/10/20 01:12:28;;;;;;;23.60;19.40;;;;;;;12.74;90.99;99049.00;5032430;28;20223;-65
2023/10/20 01:14:55;;;;;;;24.53;19.90;;;;;;;12.72;91.80;99059.88;5032267;28;20611;-65
2023/10/20 01:17:22;;;;;;;22.13;19.13;;;;;;;12.67;91.79;99057.06;5032692;28;20200;-65
2023/10/20 01:19:48;;;;;;;22.43;19.07;;;;;;;12.63;91.98;99050.53;5032323;28;20193;-65
2023/10/20 01:22:15;;;;;;;24.77;19.20;;;;;;;12.64;92.40;99052.16;5032236;28;20224;-65
2023/10/20 01:24:43;;;;;;;24.17;18.40;;;;;;;12.65;92.43;99055.63;5032794;28;20232;-65
2023/10/20 01:27:10;;;;;;;24.73;19.50;;;;;;;12.67;92.39;99057.06;5032133;28;20676;-64
2023/10/20 01:29:37;;;;;;;22.33;18.57;;;;;;;12.52;91.63;99059.25;5030941;28;20193;-65
2023/10/20 01:32:04;;;;;;;22.77;18.93;;;;;;;12.51;93.18;99054.94;5032420;28;20261;-65
2023/10/20 01:34:31;;;;;;;26.27;19.73;;;;;;;12.57;92.87;99046.06;5032165;28;20724;-65
2023/10/20 01:36:57;;;;;;;21.13;18.67;;;;;;;12.57;92.73;99055.94;5032119;28;20189;-65
2023/10/20 01:39:25;;;;;;;21.03;18.60;;;;;;;12.58;92.52;99045.03;5032074;28;20723;-65
2023/10/20 01:41:53;;;;;;;22.97;18.40;;;;;;;12.62;92.28;99042.75;5032408;28;20656;-66
2023/10/20 01:44:19;;;;;;;20.67;18.53;;;;;;;12.63;92.39;99039.88;5052115;28;20254;-65
2023/10/20 01:46:49;;;;;;;22.37;19.10;;;;;;;12.60;92.23;99045.63;5052003;28;20196;-64
2023/10/20 01:49:16;;;;;;;23.90;17.97;;;;;;;12.60;92.60;99053.63;5051924;28;20270;-65
2023/10/20 01:51:43;;;;;;;24.47;18.33;;;;;;;12.59;92.38;99067.16;5051593;28;20660;-65
2023/10/20 01:54:09;;;;;;;22.50;19.30;;;;;;;12.59;92.56;99065.31;5052163;28;20196;-64
2023/10/20 01:56:36;;;;;;;25.93;18.83;;;;;;;12.58;92.73;99066.34;5051631;28;20196;-64
2023/10/20 01:59:04;;;;;;;22.73;17.60;;;;;;;12.56;92.61;99065.75;5051768;28;20261;-64
2023/10/20 02:01:31;;;;;;;22.07;18.37;;;;;;;12.57;92.76;99055.94;5051812;28;20200;-64
2023/10/20 02:03:58;;;;;;;21.57;17.77;;;;;;;12.56;92.38;99055.09;5051548;28;20666;-64
2023/10/20 02:06:25;;;;;;;19.70;17.70;;;;;;;12.57;92.49;99062.06;5051764;28;20216;-66
2023/10/20 02:08:51;;;;;;;20.60;17.80;;;;;;;12.53;92.67;99060.06;5051258;28;20760;-65
2023/10/20 02:11:18;;;;;;;23.20;17.87;;;;;;;12.53;92.74;99060.84;5052033;28;20237;-65
2023/10/20 02:13:45;;;;;;;23.10;17.97;;;;;;;12.50;93.26;99057.81;5051815;28;20243;-64
2023/10/20 02:16:13;;;;;;;27.33;19.00;;;;;;;12.52;92.96;99058.41;5051839;28;20261;-64
2023/10/20 02:18:40;;;;;;;23.63;17.73;;;;;;;12.42;93.16;99050.09;5051609;28;20188;-64
2023/10/20 02:21:07;;;;;;;22.97;19.00;;;;;;;12.42;93.60;99047.44;5051418;28;20742;-65
2023/10/20 02:23:35;;;;;;;22.37;18.47;;;;;;;12.44;93.05;99046.19;5051639;28;20644;-65
2023/10/20 02:26:05;;;;;;;22.17;18.60;;;;;;;12.42;93.14;99042.13;5051338;28;20686;-65
2023/10/20 02:28:32;;;;;;;22.43;18.63;;;;;;;12.39;93.28;99040.72;5051720;28;20271;-65
2023/10/20 02:31:01;;;;;;;21.00;18.37;;;;;;;12.44;93.40;99045.38;5051600;28;20258;-65
2023/10/20 02:33:29;;;;;;;23.57;17.90;;;;;;;12.44;93.16;99030.22;5051308;28;20247;-65
2023/10/20 02:35:57;;;;;;;25.07;18.40;;;;;;;12.39;92.87;99038.03;5051820;28;20228;-65
2023/10/20 02:38:23;;;;;;;22.40;19.40;;;;;;;12.40;92.96;99018.38;5051500;28;20191;-65
2023/10/20 02:40:50;;;;;;;21.53;18.73;;;;;;;12.31;92.19;99019.69;5051629;28;20200;-65
2023/10/20 02:43:17;;;;;;;24.57;18.33;;;;;;;12.25;92.69;99009.88;5038910;28;20229;-65
2023/10/20 02:45:48;;;;;;;25.03;18.37;;;;;;;12.24;92.58;99016.25;5031558;28;20225;-64
2023/10/20 02:48:15;;;;;;;27.37;17.93;;;;;;;12.22;92.84;99018.34;5031553;28;20220;-65
2023/10/20 02:50:43;;;;;;;23.90;19.27;;;;;;;12.24;93.17;99012.75;5031244;28;20205;-65
2023/10/20 02:53:10;;;;;;;31.10;19.43;;;;;;;12.25;93.07;99014.41;5031441;28;20200;-65
2023/10/20 02:55:38;;;;;;;25.50;19.17;;;;;;;12.27;92.37;98999.84;5031597;28;20255;-64
2023/10/20 02:58:05;;;;;;;24.80;18.23;;;;;;;12.28;91.80;99004.13;5031074;28;20653;-64
2023/10/20 03:00:33;;;;;;;25.97;19.77;;;;;;;12.34;91.83;99007.78;5036329;28;20577;-65
2023/10/20 03:02:59;;;;;;;20.80;17.77;;;;;;;12.33;91.87;99006.16;5050928;28;20565;-64
2023/10/20 03:05:29;;;;;;;23.17;19.83;;;;;;;12.31;91.67;99003.69;5050900;28;20220;-64
2023/10/20 03:07:58;;;;;;;22.40;18.60;;;;;;;12.30;91.51;98998.59;5051193;28;20223;-66
2023/10/20 03:10:25;;;;;;;24.90;19.43;;;;;;;12.27;91.40;99010.50;5051262;28;20264;-65
2023/10/20 03:12:51;;;;;;;24.73;19.33;;;;;;;12.27;91.77;99001.69;5050854;28;20200;-64
2023/10/20 03:15:18;;;;;;;23.53;18.57;;;;;;;12.20;91.91;99007.06;5050948;28;20671;-64
2023/10/20 03:17:45;;;;;;;23.60;18.53;;;;;;;12.19;92.49;99005.44;5051099;28;20245;-64
2023/10/20 03:20:14;;;;;;;23.23;18.97;;;;;;;12.10;92.20;99006.75;5051166;28;20189;-65
2023/10/20 03:22:41;;;;;;;23.10;18.77;;;;;;;12.03;93.26;99013.97;5053668;28;20199;-64
2023/10/20 03:25:11;;;;;;;21.47;19.10;;;;;;;12.07;92.85;98999.19;5054433;28;20226;-64
2023/10/20 03:27:38;;;;;;;21.00;17.87;;;;;;;12.09;92.48;99005.09;5054731;28;20310;-64
2023/10/20 03:30:06;;;;;;;25.20;18.80;;;;;;;12.03;92.38;99005.16;5054767;28;20235;-64
2023/10/20 03:32:33;;;;;;;28.43;20.50;;;;;;;11.92;92.70;99009.34;5054542;28;20255;-64
2023/10/20 03:35:00;;;;;;;21.37;18.13;;;;;;;11.91;92.84;99013.03;5054620;28;20240;-65
2023/10/20 03:37:27;;;;;;;23.13;18.20;;;;;;;11.97;92.83;99012.16;5054451;28;20196;-65
2023/10/20 03:39:53;;;;;;;24.90;20.70;;;;;;;11.94;92.72;99007.28;5054446;28;20254;-65
2023/10/20 03:42:21;;;;;;;22.07;19.40;;;;;;;11.95;92.90;99006.25;5049653;28;20196;-65
2023/10/20 03:44:48;;;;;;;28.07;19.47;;;;;;;11.89;93.04;99007.13;5034544;28;20200;-65
2023/10/20 03:47:17;;;;;;;25.33;19.50;;;;;;;11.93;93.36;99021.63;5034424;28;20232;-64
2023/10/20 03:49:43;;;;;;;27.03;19.60;;;;;;;11.95;93.17;99024.06;5034046;28;20198;-64
2023/10/20 03:52:11;;;;;;;29.80;19.73;;;;;;;11.93;92.84;99018.97;5034284;28;20274;-63
2023/10/20 03:54:38;;;;;;;29.57;19.50;;;;;;;11.93;93.04;99026.97;5033852;28;20660;-64
2023/10/20 03:57:05;;;;;;;37.00;21.97;;;;;;;11.90;93.12;99014.09;5033423;28;20192;-65
2023/10/20 03:59:34;;;;;;;26.03;20.40;;;;;;;11.89;92.84;99020.44;5034185;28;20193;-65
2023/10/20 04:02:01;;;;;;;32.53;20.70;;;;;;;11.70;92.72;99013.41;5033801;28;20211;-64
2023/10/20 04:04:28;;;;;;;28.87;22.00;;;;;;;11.75;93.13;99024.19;5034128;28;20193;-64
2023/10/20 04:06:55;;;;;;;29.90;20.37;;;;;;;11.76;93.42;99025.03;5033506;28;20657;-65
2023/10/20 04:09:23;;;;;;;28.10;21.40;;;;;;;11.82;93.17;99030.31;5033526;28;20239;-64
2023/10/20 04:11:49;;;;;;;38.63;21.73;;;;;;;11.84;92.93;99027.44;5033814;28;20204;-65
2023/10/20 04:14:16;;;;;;;43.33;21.20;;;;;;;11.84;92.48;99022.91;5033863;28;20282;-65
2023/10/20 04:16:45;;;;;;;40.43;21.33;;;;;;;11.83;92.63;99029.28;5033601;28;20204;-65
2023/10/20 04:19:14;;;;;;;37.40;20.83;;;;;;;11.81;93.58;99031.34;5033837;28;20193;-65
2023/10/20 04:21:43;;;;;;;32.40;19.70;;;;;;;11.71;92.93;99017.69;5033739;28;20308;-64
2023/10/20 04:24:10;;;;;;;31.13;21.23;;;;;;;11.61;93.83;99012.03;5033695;28;20192;-64
2023/10/20 04:26:38;;;;;;;26.03;20.43;;;;;;;11.53;94.40;99020.22;5033593;28;20220;-64
2023/10/20 04:29:23;;;;;;;30.83;20.70;;;;;;;11.52;94.54;99023.94;5033287;28;20192;-64
2023/10/20 04:46:55;;;;;;;34.33;19.50;;;;;;;11.43;95.58;99014.53;5029257;28;20278;-66
2023/10/20 04:51:27;;;;;;;24.73;15.73;;;;;;;11.16;96.72;99013.06;5040978;28;20281;-65
2023/10/20 04:53:53;;;;;;;24.53;17.13;;;;;;;10.94;97.01;99027.63;5040271;28;20207;-66
2023/10/20 04:56:32;;;;;;;31.27;17.10;;;;;;;11.09;97.83;99025.53;5040549;28;20748;-65
2023/10/20 04:59:04;;;;;;;20.23;16.67;;;;;;;10.98;97.57;99018.22;5040432;28;20191;-65
2023/10/20 05:01:41;;;;;;;28.00;17.27;;;;;;;11.04;97.96;99018.19;5041196;28;20667;-66
2023/10/20 05:04:14;;;;;;;25.90;17.77;;;;;;;11.07;97.95;99024.97;5041547;28;20646;-65
2023/10/20 05:06:43;;;;;;;22.63;16.23;;;;;;;11.22;97.52;99033.47;5037607;28;20216;-65
2023/10/20 05:09:13;;;;;;;24.67;17.10;;;;;;;11.36;96.99;99037.72;5043048;28;20618;-64
2023/10/20 05:11:40;;;;;;;21.53;16.67;;;;;;;11.56;96.38;99029.63;5046719;28;20192;-65
2023/10/20 05:14:07;;;;;;;17.97;16.03;;;;;;;11.72;95.50;99034.47;5039122;28;20265;-65
2023/10/20 05:16:34;;;;;;;17.60;15.80;;;;;;;11.88;95.10;99021.44;5041524;28;20193;-65
2023/10/20 05:19:03;;;;;;;24.67;17.23;;;;;;;12.08;94.14;99030.09;5042565;28;20197;-65
2023/10/20 05:21:33;;;;;;;18.87;14.30;;;;;;;12.26;93.01;99030.19;5040947;28;20263;-66
2023/10/20 05:24:03;;;;;;;19.47;14.07;;;;;;;12.45;94.21;99026.50;5036596;28;20189;-65
2023/10/20 05:26:30;;;;;;;23.83;14.60;;;;;;;12.93;91.01;99032.78;5031659;28;20213;-65
2023/10/20 05:28:57;;;;;;;18.03;12.63;;;;;;;13.34;89.35;99038.28;5031877;28;20196;-65
2023/10/20 05:31:25;;;;;;;15.87;13.47;;;;;;;13.64;86.42;99043.63;5031794;28;20220;-64
2023/10/20 05:33:52;;;;;;;19.10;13.57;;;;;;;13.96;84.35;99048.47;5031017;28;20189;-64
2023/10/20 05:36:19;;;;;;;13.80;12.33;;;;;;;14.22;83.01;99044.63;5031645;28;20657;-64
2023/10/20 05:38:47;;;;;;;17.07;12.73;;;;;;;14.70;80.42;99054.06;5031648;28;20220;-65
2023/10/20 05:41:13;;;;;;;18.23;12.00;;;;;;;14.99;80.55;99055.78;5031756;28;20197;-65
2023/10/20 05:43:41;;;;;;;11.80;8.80;;;;;;;15.70;83.28;99042.81;5030679;28;20198;-67
2023/10/20 05:46:13;;;;;;;11.27;10.23;;;;;;;16.66;77.60;99052.50;5030533;28;20217;-68
2023/10/20 05:48:40;;;;;;;12.30;8.87;;;;;;;17.48;73.48;99064.94;5030533;28;20252;-68
2023/10/20 05:51:07;;;;;;;14.50;9.10;;;;;;;18.23;69.69;99066.53;5033664;28;20260;-69
2023/10/20 05:53:33;;;;;;;25.60;10.20;;;;;;;18.71;63.58;99081.75;5030818;28;20751;-69
2023/10/20 05:56:02;;;;;;;8.83;8.03;;;;;;;19.20;64.19;99072.38;5030869;28;20207;-70
2023/10/20 05:58:30;;;;;;;16.40;8.43;;;;;;;19.68;62.34;99072.03;5031143;28;20205;-71
2023/10/20 06:01:04;;;;;;;23.10;11.23;;;;;;;20.07;57.44;99067.84;5031166;28;20201;-73
2023/10/20 06:03:31;;;;;;;12.50;7.90;;;;;;;20.33;58.69;99072.22;5039641;28;20625;-72
2023/10/20 06:05:59;;;;;;;12.27;10.87;;;;;;;20.43;55.61;99072.22;5033540;28;20693;-73
2023/10/20 06:08:27;;;;;;;13.53;10.90;;;;;;;19.85;56.50;99069.97;5034719;28;20243;-71
2023/10/20 06:10:54;;;;;;;11.67;10.37;;;;;;;19.48;59.35;99064.72;5037062;28;20193;-70
2023/10/20 06:13:22;;;;;;;11.90;10.87;;;;;;;19.41;58.56;99066.03;5036383;28;20255;-69
2023/10/20 06:15:49;;;;;;;11.57;10.23;;;;;;;19.25;58.55;99067.03;5033896;28;20224;-69
2023/10/20 06:18:17;;;;;;;11.57;9.77;;;;;;;19.05;63.05;99069.59;5030913;28;20244;-67
2023/10/20 06:20:44;;;;;;;10.40;9.30;;;;;;;19.22;61.22;99072.91;5031047;28;20552;-71
2023/10/20 06:23:11;;;;;;;14.73;9.13;;;;;;;19.95;59.81;99080.75;5030656;28;20189;-69
2023/10/20 06:25:37;;;;;;;26.67;10.15;;;;;;;20.29;58.23;99082.75;5036912;28;20481;-70
2023/10/20 06:28:06;;;;;;;15.40;9.73;;;;;;;20.80;56.17;99082.72;5036276;28;20205;-67
2023/10/20 06:30:42;;;;;;;22.97;10.07;;;;;;;21.16;54.22;99090.53;5033466;28;20204;-66
2023/10/20 06:33:16;;;;;;;15.60;8.17;;;;;;;21.27;54.45;99094.81;5039613;28;20307;-67
2023/10/20 06:35:50;;;;;;;12.70;8.13;;;;;;;21.54;52.84;99097.97;5039690;28;20246;-66
2023/10/20 06:38:19;;;;;;;11.33;8.40;;;;;;;21.64;52.59;99100.63;5039308;28;20218;-68
2023/10/20 06:40:47;;;;;;;20.93;9.20;;;;;;;21.96;49.39;99111.88;5038551;28;20618;-66
2023/10/20 06:43:16;;;;;;;19.37;8.40;;;;;;;22.27;51.67;99099.78;5037345;28;20219;-68
2023/10/20 06:45:44;;;;;;;13.70;8.90;;;;;;;22.24;51.17;99097.63;5030407;28;20698;-67
2023/10/20 06:48:11;;;;;;;11.30;8.50;;;;;;;22.53;50.22;99100.41;5029662;28;20193;-67
2023/10/20 06:50:38;;;;;;;14.20;8.80;;;;;;;22.16;51.68;99100.94;5032881;28;20252;-66
2023/10/20 06:53:05;;;;;;;14.07;8.90;;;;;;;22.27;50.94;99097.09;5032668;28;20267;-68
2023/10/20 06:55:31;;;;;;;67.53;11.83;;;;;;;22.49;50.41;99094.78;5030120;28;20190;-64
2023/10/20 06:57:58;;;;;;;25.07;8.17;;;;;;;22.55;50.71;99095.56;5033972;28;20738;-67
2023/10/20 07:00:26;;;;;;;9.10;8.50;;;;;;;22.27;48.08;99113.31;5034504;28;20259;-68
2023/10/20 07:02:54;;;;;;;10.33;8.57;;;;;;;22.04;49.90;99105.88;5034965;28;20201;-64
2023/10/20 07:05:23;;;;;;;11.40;10.37;;;;;;;21.54;50.60;99103.38;5033793;28;20376;-68
2023/10/20 07:07:50;;;;;;;12.90;7.33;;;;;;;20.86;57.58;99081.66;5034636;28;20308;-69
2023/10/20 07:10:18;;;;;;;13.10;8.70;;;;;;;21.43;54.78;99096.38;5032342;28;20554;-67
2023/10/20 07:12:44;;;;;;;8.60;7.60;;;;;;;21.91;52.75;99111.91;5033893;28;20672;-72
2023/10/20 07:15:11;;;;;;;9.17;7.47;;;;;;;22.27;54.27;99099.78;5033438;28;20255;-74
2023/10/20 07:17:38;;;;;;;8.80;7.90;;;;;;;22.72;54.40;99096.75;5031992;28;20676;-75
2023/10/20 07:20:08;;;;;;;16.13;9.03;;;;;;;21.56;52.01;99103.91;5033553;28;20260;-72
2023/10/20 07:22:34;;;;;;;11.37;8.70;;;;;;;20.37;59.15;99084.91;5034577;28;20275;-72
2023/10/20 07:25:02;;;;;;;11.77;8.20;;;;;;;20.70;56.55;99086.25;5042115;28;20196;-72
2023/10/20 07:27:29;;;;;;;11.47;7.70;;;;;;;21.37;56.90;99091.28;5044555;28;20751;-71
2023/10/20 07:29:57;;;;;;;11.50;9.40;;;;;;;21.37;53.59;99096.69;5042252;28;20190;-71
2023/10/20 07:32:23;;;;;;;11.80;7.47;;;;;;;21.72;54.72;99094.69;5039467;28;20672;-72
2023/10/20 07:34:50;;;;;;;9.30;8.47;;;;;;;21.78;53.61;99096.28;5042043;28;20213;-72
2023/10/20 07:37:18;;;;;;;9.93;8.93;;;;;;;21.01;54.74;99082.47;5044869;28;20579;-72
2023/10/20 07:39:45;;;;;;;10.33;9.43;;;;;;;20.40;57.15;99083.56;5042852;28;20190;-72
2023/10/20 07:42:12;;;;;;;11.47;7.50;;;;;;;20.40;59.42;99072.75;5045165;28;20185;-70
2023/10/20 07:44:40;;;;;;;12.10;9.87;;;;;;;20.97;57.44;99086.78;5053645;28;20266;-74
2023/10/20 07:47:06;;;;;;;11.13;10.00;;;;;;;21.88;54.31;99080.00;5053029;28;20282;-74
2023/10/20 07:49:33;;;;;;;10.90;9.93;;;;;;;21.71;53.84;99076.84;5054216;28;20193;-73
2023/10/20 07:52:00;;;;;;;17.53;9.37;;;;;;;22.10;54.33;99079.59;5053782;28;20195;-75
2023/10/20 07:54:29;;;;;;;12.33;9.17;;;;;;;22.65;52.59;99087.31;5046131;28;20198;-72
2023/10/20 07:56:56;;;;;;;8.53;7.70;;;;;;;23.08;51.37;99081.75;5035133;28;20727;-74
2023/10/20 07:59:23;;;;;;;11.07;9.93;;;;;;;23.24;48.95;99088.66;5032073;28;20630;-74
2023/10/20 08:01:50;;;;;;;11.43;9.43;;;;;;;23.38;50.35;99078.78;5032337;28;20194;-73
2023/10/20 08:04:17;;;;;;;10.27;9.37;;;;;;;23.63;48.31;99059.47;5032682;28;20193;-74
2023/10/20 08:06:44;;;;;;;11.43;9.07;;;;;;;23.83;48.38;99067.34;5033320;28;20334;-73
2023/10/20 08:09:12;;;;;;;12.13;9.77;;;;;;;24.12;48.06;99056.38;5033542;28;20241;-73
2023/10/20 08:11:41;;;;;;;9.97;9.17;;;;;;;24.24;47.38;99059.44;5032130;28;20273;-75
2023/10/20 08:14:09;;;;;;;11.50;10.40;;;;;;;24.01;47.14;99061.16;5033016;28;20193;-70
2023/10/20 08:16:36;;;;;;;11.83;10.77;;;;;;;23.94;48.20;99059.91;5033625;28;20203;-70
2023/10/20 08:19:02;;;;;;;12.37;11.20;;;;;;;23.23;48.78;99049.13;5033495;28;20253;-69
2023/10/20 08:21:30;;;;;;;12.20;9.90;;;;;;;23.05;50.92;99044.44;5033366;28;20195;-69
2023/10/20 08:23:59;;;;;;;15.27;10.23;;;;;;;23.48;49.41;99048.81;5033478;28;20231;-70
2023/10/20 08:26:26;;;;;;;16.53;11.47;;;;;;;23.73;49.07;99048.47;5032455;28;20269;-69
2023/10/20 08:28:54;;;;;;;13.13;11.83;;;;;;;23.79;48.55;99047.34;5033189;28;20282;-69
2023/10/20 08:31:21;;;;;;;12.80;10.90;;;;;;;23.85;48.74;99046.16;5033260;28;20206;-69
2023/10/20 08:33:51;;;;;;;14.57;10.80;;;;;;;23.84;48.48;99046.44;5034533;28;20658;-68
2023/10/20 08:36:21;;;;;;;11.83;10.77;;;;;;;24.08;47.66;99050.75;5041169;28;20242;-70
2023/10/20 08:38:49;;;;;;;14.40;11.27;;;;;;;24.23;47.37;99050.53;5033155;28;20252;-69
2023/10/20 08:41:17;;;;;;;19.40;12.60;;;;;;;24.51;47.06;99037.84;5033054;28;20207;-69
2023/10/20 08:43:45;;;;;;;16.83;10.97;;;;;;;24.77;45.83;99042.56;5048776;28;20248;-69
2023/10/20 08:46:15;;;;;;;24.33;12.00;;;;;;;24.67;44.77;99053.59;5052805;28;20208;-69
2023/10/20 08:48:43;;;;;;;18.07;10.47;;;;;;;24.43;46.13;99049.38;5052699;28;20210;-68
2023/10/20 08:51:12;;;;;;;11.40;10.47;;;;;;;24.65;45.11;99049.56;5052805;28;20268;-68
2023/10/20 08:53:41;;;;;;;12.27;9.33;;;;;;;24.66;45.75;99048.47;5052491;28;20638;-66
2023/10/20 08:56:09;;;;;;;12.00;10.90;;;;;;;24.58;45.13;99055.34;5028378;28;20508;-66
2023/10/20 08:58:37;;;;;;;12.40;11.40;;;;;;;24.59;45.25;99062.41;5012992;28;20205;-67
2023/10/20 09:01:04;;;;;;;16.50;9.83;;;;;;;24.39;46.04;99065.44;5012121;28;20557;-67
2023/10/20 09:03:40;;;;;;;11.77;10.20;;;;;;;24.55;45.19;99060.59;5012583;28;20209;-67
2023/10/20 09:06:10;;;;;;;17.57;12.63;;;;;;;24.74;44.62;99061.38;5012148;28;20251;-66
2023/10/20 09:08:37;;;;;;;9.57;8.67;;;;;;;24.72;45.52;99058.97;5028538;28;20231;-65
2023/10/20 09:11:07;;;;;;;15.37;10.80;;;;;;;24.52;44.04;99055.75;5031834;28;20227;-67
2023/10/20 09:13:36;;;;;;;11.50;10.43;;;;;;;23.26;47.62;99042.31;5032073;28;20227;-67
2023/10/20 09:16:07;;;;;;;11.80;10.13;;;;;;;22.83;50.32;99038.69;5030563;28;20285;-69
2023/10/20 09:18:44;;;;;;;11.50;9.90;;;;;;;22.83;50.70;99041.38;5030864;28;20202;-66
2023/10/20 09:21:13;;;;;;;17.13;10.10;;;;;;;23.35;48.40;99033.25;5031973;28;20293;-66
2023/10/20 09:23:40;;;;;;;14.67;10.00;;;;;;;23.77;47.42;99040.59;5031704;28;20202;-67
2023/10/20 09:26:07;;;;;;;15.30;9.50;;;;;;;24.04;46.44;99041.56;5031367;28;20193;-67
2023/10/20 09:28:33;;;;;;;10.23;9.40;;;;;;;24.20;46.00;99032.09;5031122;28;20576;-67
2023/10/20 09:31:01;;;;;;;13.60;10.03;;;;;;;24.30;45.67;99014.84;5031474;28;20234;-67
2023/10/20 09:33:28;;;;;;;11.43;10.30;;;;;;;24.40;44.96;99015.47;5031542;28;20254;-67
2023/10/20 09:35:57;;;;;;;11.80;9.80;;;;;;;24.56;44.56;99025.00;5031461;28;20297;-67
2023/10/20 09:38:26;;;;;;;10.57;9.57;;;;;;;24.78;43.87;99030.59;5031652;28;20262;-68
2023/10/20 09:41:11;;;;;;;9.70;8.83;;;;;;;24.92;43.83;99023.25;5031023;28;20695;-67
2023/10/20 09:43:41;;;;;;;11.80;10.87;;;;;;;25.05;43.43;99024.38;5046388;28;20266;-67
2023/10/20 09:46:21;;;;;;;13.40;10.00;;;;;;;24.95;43.89;99011.78;5050528;28;20717;-68
2023/10/20 09:48:52;;;;;;;11.57;10.37;;;;;;;24.88;44.12;99014.09;5016365;28;20218;-67
2023/10/20 09:51:21;;;;;;;11.10;10.27;;;;;;;25.02;43.27;99010.59;5021155;28;20205;-66
2023/10/20 09:53:48;;;;;;;12.10;10.90;;;;;;;24.46;44.29;99003.41;5019696;28;20231;-67
2023/10/20 09:56:17;;;;;;;20.03;11.97;;;;;;;24.42;44.85;99007.84;5031370;28;20191;-67
2023/10/20 09:58:44;;;;;;;12.87;11.60;;;;;;;24.43;44.66;99014.09;5030829;28;20664;-66
2023/10/20 10:01:14;;;;;;;10.67;9.87;;;;;;;24.31;44.97;99000.97;5022736;28;20204;-66
2023/10/20 10:03:41;;;;;;;12.27;10.90;;;;;;;24.38;45.71;98995.94;5011006;28;20195;-66
2023/10/20 10:06:15;;;;;;;12.27;8.93;;;;;;;24.48;45.83;98989.56;5011022;28;20197;-66
2023/10/20 10:08:44;;;;;;;9.77;8.90;;;;;;;24.69;45.33;98991.63;5028278;28;20211;-67
2023/10/20 10:11:21;;;;;;;12.13;10.43;;;;;;;24.16;45.83;98993.06;5030782;28;20196;-67
2023/10/20 10:13:54;;;;;;;10.40;9.30;;;;;;;24.21;45.55;98993.00;5030617;28;20200;-66
2023/10/20 10:16:21;;;;;;;12.13;9.67;;;;;;;24.49;45.03;99000.13;5031188;28;20222;-66
2023/10/20 10:18:48;;;;;;;10.23;9.33;;;;;;;24.73;44.30;98998.09;5030719;28;20619;-66
2023/10/20 10:21:25;;;;;;;10.77;9.77;;;;;;;24.86;44.29;98997.28;5031300;28;20541;-69
2023/10/20 10:24:15;;;;;;;11.23;10.00;;;;;;;24.76;44.79;98988.53;5011398;28;20236;-67
2023/10/20 10:26:46;;;;;;;17.27;9.73;;;;;;;24.96;44.13;98980.78;5011803;28;20369;-68
2023/10/20 10:29:13;;;;;;;15.13;9.83;;;;;;;25.20;43.06;98979.78;5011627;28;20252;-68
2023/10/20 10:31:40;;;;;;;9.93;9.07;;;;;;;25.37;42.87;98975.38;5015097;28;20197;-68
2023/10/20 10:34:07;;;;;;;10.33;9.47;;;;;;;25.39;42.98;98977.78;5015702;28;20305;-68
2023/10/20 10:36:43;;;;;;;11.07;9.97;;;;;;;25.44;43.12;98983.13;5026187;28;20269;-67
2023/10/20 10:39:21;;;;;;;11.83;10.63;;;;;;;25.52;47.20;98960.63;5035068;28;20249;-67
2023/10/20 10:41:48;;;;;;;17.03;9.77;;;;;;;25.70;45.25;98965.94;5035425;28;20211;-68
2023/10/20 10:44:14;;;;;;;10.87;9.53;;;;;;;25.85;44.13;98964.78;5015147;28;20255;-68
2023/10/20 10:46:42;;;;;;;11.23;9.43;;;;;;;25.84;43.37;98963.16;5015647;28;20193;-67
2023/10/20 10:49:10;;;;;;;9.70;8.60;;;;;;;25.86;44.15;98948.13;5015219;28;20288;-67
2023/10/20 10:51:44;;;;;;;13.80;10.67;;;;;;;25.68;42.07;98951.03;5015178;28;20204;-67
2023/10/20 10:54:12;;;;;;;14.63;10.23;;;;;;;25.53;42.82;98946.72;5042615;28;20212;-65
2023/10/20 10:56:41;;;;;;;15.83;9.57;;;;;;;25.55;44.21;98943.72;5034941;28;20219;-65
2023/10/20 10:59:09;;;;;;;10.97;9.77;;;;;;;25.39;43.28;98940.50;5034953;28;20304;-65
2023/10/20 11:01:37;;;;;;;11.40;9.00;;;;;;;25.43;44.37;98938.00;5034958;28;20192;-67
2023/10/20 11:04:04;;;;;;;10.37;9.27;;;;;;;25.61;43.45;98934.31;5034833;28;20193;-69
2023/10/20 11:06:33;;;;;;;9.10;7.97;;;;;;;25.72;43.16;98932.97;5033629;28;20205;-72
2023/10/20 11:09:00;;;;;;;8.77;8.13;;;;;;;25.58;42.80;98937.63;5034165;28;20236;-68
2023/10/20 11:11:28;;;;;;;23.47;9.50;;;;;;;25.44;43.13;98931.44;5034378;28;20243;-70
2023/10/20 11:13:57;;;;;;;9.47;8.53;;;;;;;25.55;43.98;98932.84;5034406;28;20628;-69
2023/10/20 11:16:23;;;;;;;9.87;8.30;;;;;;;25.66;44.03;98931.47;5033945;28;20275;-69
2023/10/20 11:18:51;;;;;;;8.67;7.87;;;;;;;25.58;43.83;98915.88;5034058;28;20669;-71
2023/10/20 11:21:17;;;;;;;8.43;7.77;;;;;;;25.62;43.94;98922.31;5034126;28;20190;-69
2023/10/20 11:23:49;;;;;;;10.73;8.37;;;;;;;25.39;43.70;98918.75;5014479;28;20205;-69
2023/10/20 11:26:17;;;;;;;8.93;8.13;;;;;;;25.33;42.87;98924.59;5014277;28;20186;-70
2023/10/20 11:28:45;;;;;;;11.73;8.47;;;;;;;25.35;43.44;98927.84;5014300;28;20225;-72
2023/10/20 11:31:12;;;;;;;9.10;7.83;;;;;;;25.46;44.11;98926.47;5014093;28;20194;-71
2023/10/20 11:33:39;;;;;;;18.00;7.43;;;;;;;25.60;43.49;98913.66;5014077;28;20684;-71
2023/10/20 11:36:07;;;;;;;7.50;6.80;;;;;;;25.56;43.02;98913.47;5030961;28;20197;-73
2023/10/20 11:38:34;;;;;;;10.57;6.77;;;;;;;25.64;44.40;98909.22;5033686;28;20208;-71
2023/10/20 11:41:01;;;;;;;9.33;7.60;;;;;;;25.60;43.18;98913.66;5033472;28;20617;-70
2023/10/20 11:43:27;;;;;;;7.17;6.57;;;;;;;25.65;42.96;98908.09;5046259;28;20204;-69
2023/10/20 11:45:55;;;;;;;6.67;6.17;;;;;;;25.67;42.72;98908.59;5053378;28;20197;-71